Time;durP1;ratioP1;P1;durP2;ratioP2;P2;SDS_P1;SDS_P2;PMS_P1;PMS_P2;Temp;Humidity;BMP_temperature;BMP_pressure;BME280_temperature;BME280_humidity;BME280_pressure;Samples;Min_cycle;Max_cycle;Signal;HPM_P1;HPM_P2
2021/04/22 00:01:26;;;;;;;9.52;7.47;;;11.00;57.80;;;;;;5055950;28;20055;-64
2021/04/22 00:03:52;;;;;;;9.10;7.43;;;11.00;58.10;;;;;;5058553;28;20444;-64
2021/04/22 00:06:24;;;;;;;14.45;10.15;;;11.10;58.00;;;;;;5064582;28;20032;-64
2021/04/22 00:08:55;;;;;;;13.73;10.02;;;11.00;58.50;;;;;;5059058;28;20048;-64
2021/04/22 00:11:25;;;;;;;14.85;10.05;;;11.00;58.50;;;;;;5059169;28;20033;-64
2021/04/22 00:13:58;;;;;;;13.00;9.55;;;10.90;58.50;;;;;;5064204;28;20517;-64
2021/04/22 00:16:26;;;;;;;12.45;9.63;;;10.80;58.30;;;;;;5065839;28;20041;-64
2021/04/22 00:18:56;;;;;;;13.05;10.20;;;10.80;58.30;;;;;;5060390;28;20032;-65
2021/04/22 00:21:21;;;;;;;15.57;10.85;;;10.80;58.80;;;;;;5064057;28;20497;-63
2021/04/22 00:23:47;;;;;;;14.15;9.93;;;10.80;58.80;;;;;;5062956;28;20036;-64
2021/04/22 00:26:15;;;;;;;16.23;10.45;;;10.80;58.80;;;;;;5060503;28;20036;-64
2021/04/22 00:28:43;;;;;;;20.15;15.02;;;10.80;59.00;;;;;;5058254;28;20090;-64
2021/04/22 00:31:09;;;;;;;18.00;13.23;;;10.70;58.90;;;;;;5059234;28;20028;-64
2021/04/22 00:33:35;;;;;;;14.95;11.32;;;10.80;59.00;;;;;;5062316;28;20044;-64
2021/04/22 00:36:03;;;;;;;14.70;10.82;;;10.90;59.20;;;;;;5061499;28;20043;-64
2021/04/22 00:38:29;;;;;;;14.77;10.88;;;10.90;59.60;;;;;;5065608;28;20051;-64
2021/04/22 00:40:57;;;;;;;14.15;10.70;;;10.90;59.40;;;;;;5065606;28;20036;-64
2021/04/22 00:43:30;;;;;;;14.52;9.63;;;10.90;59.50;;;;;;5065601;28;20040;-63
2021/04/22 00:45:56;;;;;;;15.68;10.25;;;10.90;59.60;;;;;;5064687;28;20028;-64
2021/04/22 00:48:28;;;;;;;18.80;11.15;;;10.90;59.50;;;;;;5055711;28;20726;-64
2021/04/22 00:51:01;;;;;;;15.45;11.23;;;10.90;60.00;;;;;;5057717;28;20056;-64
2021/04/22 00:53:30;;;;;;;17.00;11.73;;;10.90;60.10;;;;;;5058667;28;20036;-64
2021/04/22 00:55:58;;;;;;;14.43;10.70;;;10.90;59.90;;;;;;5065119;28;20037;-64
2021/04/22 00:58:24;;;;;;;14.25;10.63;;;10.90;59.50;;;;;;5058493;28;20155;-64
2021/04/22 01:01:02;;;;;;;15.73;11.35;;;10.90;59.60;;;;;;5051134;28;20541;-64
2021/04/22 01:03:33;;;;;;;15.63;11.32;;;10.90;60.00;;;;;;5052778;28;20041;-64
2021/04/22 01:06:07;;;;;;;16.77;11.20;;;10.90;59.70;;;;;;5060428;28;20417;-64
2021/04/22 01:08:35;;;;;;;14.80;11.15;;;10.90;60.00;;;;;;5057803;28;20070;-63
2021/04/22 01:11:07;;;;;;;15.77;11.60;;;11.00;59.90;;;;;;5052939;28;20044;-64
2021/04/22 01:13:37;;;;;;;14.85;10.80;;;10.90;60.10;;;;;;5060095;28;20095;-64
2021/04/22 01:16:02;;;;;;;17.33;11.88;;;11.00;60.10;;;;;;5062677;28;20521;-64
2021/04/22 01:18:30;;;;;;;14.00;11.18;;;11.00;59.80;;;;;;5055861;28;20067;-64
2021/04/22 01:21:01;;;;;;;15.70;11.18;;;11.00;59.80;;;;;;5060240;28;20703;-63
2021/04/22 01:23:29;;;;;;;14.35;10.95;;;11.00;59.90;;;;;;5060403;28;20037;-64
2021/04/22 01:25:58;;;;;;;14.93;11.20;;;11.00;59.80;;;;;;5061473;28;20039;-64
2021/04/22 01:28:24;;;;;;;14.77;11.05;;;11.00;59.80;;;;;;5057115;28;20037;-64
2021/04/22 01:30:56;;;;;;;13.63;10.82;;;11.00;59.90;;;;;;5063937;28;20086;-64
2021/04/22 01:33:27;;;;;;;12.93;10.10;;;11.10;60.00;;;;;;5065092;28;20036;-64
2021/04/22 01:35:57;;;;;;;15.57;11.18;;;11.10;60.10;;;;;;5061243;28;20040;-64
2021/04/22 01:38:30;;;;;;;13.18;10.07;;;11.10;60.00;;;;;;5063168;28;20040;-64
2021/04/22 01:40:57;;;;;;;13.40;9.98;;;11.10;60.00;;;;;;5064166;28;20052;-63
2021/04/22 01:43:26;;;;;;;13.18;9.60;;;11.10;59.90;;;;;;5062069;28;20120;-64
2021/04/22 01:45:56;;;;;;;13.63;9.95;;;11.10;60.00;;;;;;5066072;28;20520;-64
2021/04/22 01:48:25;;;;;;;13.18;9.73;;;11.10;60.20;;;;;;5063683;28;20036;-64
2021/04/22 01:50:53;;;;;;;14.68;10.13;;;11.10;60.10;;;;;;5062957;28;20054;-65
2021/04/22 01:53:21;;;;;;;14.13;10.80;;;11.10;60.10;;;;;;5081537;28;20111;-64
2021/04/22 01:55:52;;;;;;;13.65;10.18;;;11.10;60.10;;;;;;5060759;28;20028;-64
2021/04/22 01:58:24;;;;;;;12.73;9.50;;;11.00;60.50;;;;;;5058943;28;20037;-63
2021/04/22 02:01:00;;;;;;;12.85;9.82;;;11.00;60.80;;;;;;5061147;28;20063;-64
2021/04/22 02:03:33;;;;;;;12.82;9.75;;;10.90;61.00;;;;;;5062210;28;20028;-64
2021/04/22 02:06:02;;;;;;;14.40;10.02;;;10.90;61.00;;;;;;5064522;28;20033;-64
2021/04/22 02:08:32;;;;;;;14.63;9.88;;;10.90;61.00;;;;;;5063961;28;20036;-64
2021/04/22 02:11:00;;;;;;;14.65;10.15;;;10.90;60.80;;;;;;5061552;28;20040;-64
2021/04/22 02:13:30;;;;;;;13.05;9.50;;;10.80;60.90;;;;;;5063557;28;20036;-64
2021/04/22 02:15:58;;;;;;;17.17;10.65;;;10.80;61.10;;;;;;5061804;28;20442;-64
2021/04/22 02:18:27;;;;;;;13.80;10.20;;;10.80;61.20;;;;;;5063453;28;20055;-63
2021/04/22 02:20:55;;;;;;;12.88;9.82;;;10.70;61.00;;;;;;5061071;28;20036;-64
2021/04/22 02:23:28;;;;;;;13.93;9.75;;;10.70;61.10;;;;;;5068186;28;20039;-64
2021/04/22 02:25:59;;;;;;;12.63;10.00;;;10.70;61.30;;;;;;5068334;28;20040;-63
2021/04/22 02:28:29;;;;;;;13.32;10.32;;;10.60;61.40;;;;;;5062851;28;20028;-65
2021/04/22 02:30:57;;;;;;;16.60;11.15;;;10.60;61.30;;;;;;5061229;28;20054;-64
2021/04/22 02:33:27;;;;;;;15.63;11.85;;;10.60;61.20;;;;;;5063867;28;20062;-64
2021/04/22 02:35:55;;;;;;;16.98;11.50;;;10.60;61.70;;;;;;5061109;28;20029;-64
2021/04/22 02:38:21;;;;;;;14.93;11.07;;;10.50;61.50;;;;;;5057012;28;20032;-66
2021/04/22 02:40:49;;;;;;;15.35;11.23;;;10.40;61.30;;;;;;5065467;28;20036;-64
2021/04/22 02:43:21;;;;;;;15.40;11.13;;;10.40;61.70;;;;;;5061381;28;20040;-64
2021/04/22 02:45:56;;;;;;;14.43;10.93;;;10.40;61.80;;;;;;5066177;28;20033;-64
2021/04/22 02:48:26;;;;;;;13.82;10.10;;;10.30;61.90;;;;;;5065881;28;20513;-65
2021/04/22 02:50:58;;;;;;;14.13;10.45;;;10.30;61.30;;;;;;5060502;28;20032;-64
2021/04/22 02:53:26;;;;;;;16.05;10.75;;;10.30;61.30;;;;;;5063423;28;20032;-64
2021/04/22 02:55:54;;;;;;;14.32;10.63;;;10.30;62.20;;;;;;5067945;28;20037;-65
2021/04/22 02:58:28;;;;;;;14.82;11.15;;;10.30;61.40;;;;;;5061785;28;20111;-64
2021/04/22 03:00:58;;;;;;;14.32;9.98;;;10.20;61.50;;;;;;5062723;28;20028;-64
2021/04/22 03:03:29;;;;;;;14.00;10.82;;;10.20;61.50;;;;;;5058597;28;20040;-64
2021/04/22 03:05:57;;;;;;;14.00;10.20;;;10.10;61.30;;;;;;5058885;28;20024;-64
2021/04/22 03:08:26;;;;;;;15.68;10.88;;;10.00;61.70;;;;;;5058228;28;20028;-64
2021/04/22 03:10:57;;;;;;;11.93;9.93;;;9.90;62.40;;;;;;5058408;28;20037;-64
2021/04/22 03:13:25;;;;;;;16.42;10.38;;;9.90;61.70;;;;;;5064288;28;20586;-63
2021/04/22 03:15:53;;;;;;;13.32;10.43;;;9.90;61.60;;;;;;5061450;28;20028;-64
2021/04/22 03:18:18;;;;;;;14.70;10.55;;;9.80;62.00;;;;;;5060398;28;20624;-65
2021/04/22 03:20:49;;;;;;;15.18;10.20;;;9.80;61.90;;;;;;5059862;28;20048;-64
2021/04/22 03:23:14;;;;;;;14.80;10.23;;;9.80;62.00;;;;;;5066036;28;20056;-64
2021/04/22 03:25:44;;;;;;;13.68;10.13;;;9.80;62.00;;;;;;5064073;28;20060;-64
2021/04/22 03:28:15;;;;;;;14.95;10.38;;;9.70;62.00;;;;;;5059737;28;20076;-64
2021/04/22 03:30:45;;;;;;;12.60;9.73;;;9.70;62.20;;;;;;5062306;28;20045;-63
2021/04/22 03:33:15;;;;;;;14.73;10.48;;;9.60;62.10;;;;;;5059614;28;20040;-64
2021/04/22 03:35:45;;;;;;;14.23;10.48;;;9.60;62.00;;;;;;5065453;28;20025;-64
2021/04/22 03:38:11;;;;;;;15.32;10.73;;;9.60;62.00;;;;;;5051431;28;20032;-63
2021/04/22 03:40:37;;;;;;;14.00;10.30;;;9.60;62.30;;;;;;5057178;28;20025;-63
2021/04/22 03:43:09;;;;;;;15.50;10.45;;;9.50;62.40;;;;;;5054138;28;20404;-64
2021/04/22 03:45:40;;;;;;;13.73;10.27;;;9.50;62.80;;;;;;5058435;28;20504;-63
2021/04/22 03:48:13;;;;;;;16.50;10.48;;;9.40;63.70;;;;;;5065909;28;20048;-64
2021/04/22 03:50:44;;;;;;;16.02;10.80;;;9.40;63.10;;;;;;5052923;28;20033;-64
2021/04/22 03:53:12;;;;;;;14.02;10.00;;;9.30;62.90;;;;;;5064711;28;20036;-65
2021/04/22 03:55:40;;;;;;;14.45;10.30;;;9.30;62.90;;;;;;5066361;28;20029;-64
2021/04/22 03:58:08;;;;;;;14.63;10.32;;;9.30;63.10;;;;;;5057720;28;20040;-63
2021/04/22 04:00:36;;;;;;;15.55;11.15;;;9.30;64.10;;;;;;5061333;28;20070;-64
2021/04/22 04:03:06;;;;;;;18.00;10.52;;;9.20;63.50;;;;;;5060551;28;20043;-65
2021/04/22 04:05:32;;;;;;;13.73;10.07;;;9.20;63.60;;;;;;5064941;28;20059;-65
2021/04/22 04:08:02;;;;;;;14.27;10.32;;;9.20;63.60;;;;;;5057279;28;20659;-64
2021/04/22 04:10:32;;;;;;;16.48;10.32;;;9.10;63.70;;;;;;5057048;28;20565;-63
2021/04/22 04:12:58;;;;;;;15.13;10.05;;;9.10;63.60;;;;;;5055698;28;20060;-64
2021/04/22 04:15:28;;;;;;;19.13;10.45;;;9.10;63.40;;;;;;5054455;28;20040;-64
2021/04/22 04:17:58;;;;;;;15.45;10.02;;;9.10;63.60;;;;;;5052338;28;20074;-64
2021/04/22 04:20:24;;;;;;;16.20;9.85;;;9.10;63.40;;;;;;5052409;28;20037;-64
2021/04/22 04:22:50;;;;;;;14.52;10.07;;;9.00;63.40;;;;;;5055322;28;20086;-63
2021/04/22 04:25:18;;;;;;;16.33;10.25;;;9.00;63.50;;;;;;5064188;28;20037;-64
2021/04/22 04:27:43;;;;;;;14.65;10.20;;;8.90;63.80;;;;;;5064586;28;20025;-64
2021/04/22 04:30:15;;;;;;;15.40;10.10;;;8.90;63.80;;;;;;5061709;28;20037;-63
2021/04/22 04:32:43;;;;;;;14.63;9.75;;;8.80;64.20;;;;;;5056536;28;20079;-64
2021/04/22 04:35:17;;;;;;;13.82;10.18;;;8.70;64.10;;;;;;5064466;28;20040;-63
2021/04/22 04:37:45;;;;;;;16.70;9.98;;;8.70;64.50;;;;;;5057109;28;20032;-64
2021/04/22 04:40:15;;;;;;;13.25;9.60;;;8.70;64.60;;;;;;5051124;28;20044;-64
2021/04/22 04:42:44;;;;;;;13.93;10.10;;;8.60;64.60;;;;;;5055530;28;20044;-63
2021/04/22 04:45:16;;;;;;;16.85;11.02;;;8.60;64.60;;;;;;5059286;28;20417;-63
2021/04/22 04:47:42;;;;;;;15.13;10.60;;;8.60;65.00;;;;;;5064597;28;20070;-64
2021/04/22 04:50:13;;;;;;;15.77;11.43;;;8.50;64.80;;;;;;5060442;28;20060;-64
2021/04/22 04:52:43;;;;;;;16.23;11.43;;;8.50;65.00;;;;;;5065233;28;20097;-66
2021/04/22 04:55:12;;;;;;;14.27;9.82;;;8.60;65.50;;;;;;5063836;28;20474;-66
2021/04/22 04:57:41;;;;;;;14.82;10.23;;;8.50;65.30;;;;;;5064630;28;20490;-66
2021/04/22 05:00:09;;;;;;;14.82;10.55;;;8.60;65.70;;;;;;5064213;28;20234;-66
2021/04/22 05:02:37;;;;;;;16.90;11.20;;;8.60;65.70;;;;;;5061544;28;20024;-66
2021/04/22 05:05:06;;;;;;;18.58;11.68;;;8.60;65.70;;;;;;5062296;28;20129;-66
2021/04/22 05:07:39;;;;;;;20.70;11.45;;;8.60;65.90;;;;;;5065121;28;20086;-66
2021/04/22 05:10:08;;;;;;;18.85;12.45;;;8.60;66.00;;;;;;5061431;28;20477;-66
2021/04/22 05:12:34;;;;;;;16.55;11.93;;;8.60;66.00;;;;;;5058031;28;20041;-65
2021/04/22 05:15:08;;;;;;;18.70;12.48;;;8.60;65.90;;;;;;5064516;28;20041;-65
2021/04/22 05:17:36;;;;;;;22.00;12.95;;;8.60;65.90;;;;;;5065913;28;20029;-65
2021/04/22 05:20:09;;;;;;;17.08;11.55;;;8.60;65.90;;;;;;5064976;28;20072;-65
2021/04/22 05:22:39;;;;;;;22.13;12.57;;;8.60;65.90;;;;;;5063598;28;20052;-65
2021/04/22 05:25:08;;;;;;;23.27;12.88;;;8.70;65.90;;;;;;5064136;28;20409;-65
2021/04/22 05:27:36;;;;;;;26.20;14.70;;;8.70;65.60;;;;;;5064354;28;20063;-65
2021/04/22 05:30:03;;;;;;;21.48;13.05;;;8.80;65.90;;;;;;5065940;28;20068;-65
2021/04/22 05:32:33;;;;;;;26.98;13.30;;;8.80;65.70;;;;;;5063236;28;20036;-63
2021/04/22 05:35:04;;;;;;;25.33;13.25;;;8.80;65.80;;;;;;5064990;28;20206;-65
2021/04/22 05:37:32;;;;;;;23.20;13.73;;;8.80;66.00;;;;;;5064152;28;20025;-65
2021/04/22 05:40:00;;;;;;;20.02;13.05;;;8.90;65.80;;;;;;5065893;28;20028;-65
2021/04/22 05:42:28;;;;;;;24.20;13.80;;;8.90;65.60;;;;;;5067422;28;20036;-64
2021/04/22 05:44:58;;;;;;;25.33;13.90;;;9.00;65.90;;;;;;5069718;28;20067;-65
2021/04/22 05:47:31;;;;;;;24.08;13.30;;;9.00;66.10;;;;;;5068841;28;20025;-65
2021/04/22 05:50:01;;;;;;;23.27;13.00;;;9.00;66.20;;;;;;5063994;28;20028;-65
2021/04/22 05:52:26;;;;;;;20.80;12.40;;;9.10;66.20;;;;;;5066564;28;20112;-64
2021/04/22 05:54:52;;;;;;;20.55;13.48;;;9.10;65.90;;;;;;5067148;28;20143;-65
2021/04/22 05:57:22;;;;;;;16.65;10.68;;;9.20;66.00;;;;;;5068485;28;20124;-65
2021/04/22 05:59:50;;;;;;;19.55;12.25;;;9.30;66.10;;;;;;5068471;28;20033;-64
2021/04/22 06:02:23;;;;;;;21.55;11.68;;;9.30;66.00;;;;;;5068611;28;20202;-65
2021/04/22 06:04:48;;;;;;;19.10;11.05;;;9.40;66.00;;;;;;5068909;28;20040;-65
2021/04/22 06:07:14;;;;;;;29.80;11.68;;;9.50;65.80;;;;;;5068086;28;20033;-65
2021/04/22 06:09:42;;;;;;;24.05;12.02;;;9.60;65.80;;;;;;5065470;28;20120;-64
2021/04/22 06:12:13;;;;;;;26.38;10.98;;;9.60;65.90;;;;;;5061766;28;20033;-65
2021/04/22 06:14:39;;;;;;;39.72;11.82;;;9.70;65.80;;;;;;5062849;28;20024;-65
2021/04/22 06:17:09;;;;;;;33.08;11.52;;;9.70;65.70;;;;;;5068315;28;20039;-65
2021/04/22 06:19:37;;;;;;;29.48;13.23;;;9.80;65.90;;;;;;5063270;28;20112;-65
2021/04/22 06:22:07;;;;;;;29.38;13.80;;;9.80;65.80;;;;;;5067748;28;20034;-65
2021/04/22 06:24:35;;;;;;;26.92;13.15;;;9.90;65.90;;;;;;5067942;28;20059;-65
2021/04/22 06:27:03;;;;;;;27.40;13.25;;;10.00;65.70;;;;;;5066011;28;20033;-65
2021/04/22 06:29:29;;;;;;;29.67;13.52;;;10.00;65.70;;;;;;5069220;28;20037;-65
2021/04/22 06:31:57;;;;;;;33.42;13.15;;;10.10;65.70;;;;;;5067084;28;20389;-65
2021/04/22 06:34:25;;;;;;;36.95;15.70;;;10.20;65.70;;;;;;5067005;28;20036;-65
2021/04/22 06:36:59;;;;;;;28.73;15.27;;;10.30;65.70;;;;;;5082688;28;20040;-65
2021/04/22 06:39:27;;;;;;;30.42;14.95;;;10.40;65.50;;;;;;5067641;28;20048;-65
2021/04/22 06:41:58;;;;;;;26.85;13.73;;;10.50;65.50;;;;;;5064920;28;20039;-65
2021/04/22 06:44:26;;;;;;;24.98;13.93;;;10.50;65.30;;;;;;5082995;28;20032;-66
2021/04/22 06:46:59;;;;;;;27.80;12.60;;;10.70;66.20;;;;;;5068278;28;20029;-65
2021/04/22 06:49:27;;;;;;;23.67;11.82;;;10.70;65.20;;;;;;5062756;28;20020;-65
2021/04/22 06:51:52;;;;;;;18.90;12.52;;;10.80;64.80;;;;;;5063864;28;20028;-65
2021/04/22 06:54:18;;;;;;;20.60;12.45;;;10.90;64.60;;;;;;5066684;28;20095;-65
2021/04/22 06:56:49;;;;;;;16.05;11.80;;;11.00;64.40;;;;;;5066012;28;20056;-65
2021/04/22 06:59:19;;;;;;;23.35;12.45;;;11.10;64.30;;;;;;5067003;28;20029;-65
2021/04/22 07:01:47;;;;;;;19.45;12.93;;;11.20;64.10;;;;;;5056279;28;20121;-65
2021/04/22 07:04:18;;;;;;;18.70;13.55;;;11.20;64.00;;;;;;5065783;28;20056;-65
2021/04/22 07:06:46;;;;;;;20.88;13.63;;;11.40;64.00;;;;;;5064776;28;20040;-65
2021/04/22 07:09:20;;;;;;;18.98;13.23;;;11.40;63.70;;;;;;5062963;28;20036;-65
2021/04/22 07:11:50;;;;;;;20.92;13.85;;;11.50;63.80;;;;;;5060969;28;20032;-65
2021/04/22 07:14:15;;;;;;;17.60;13.45;;;11.60;63.90;;;;;;5066187;28;20033;-65
2021/04/22 07:16:46;;;;;;;21.30;14.13;;;11.70;63.60;;;;;;5066328;28;20036;-62
2021/04/22 07:19:14;;;;;;;20.50;14.10;;;11.70;63.50;;;;;;5066431;28;20115;-63
2021/04/22 07:21:42;;;;;;;21.02;14.50;;;11.80;63.40;;;;;;5066677;28;20397;-63
2021/04/22 07:24:11;;;;;;;18.42;13.73;;;11.90;63.60;;;;;;5066035;28;20064;-63
2021/04/22 07:26:41;;;;;;;19.83;14.68;;;11.90;63.40;;;;;;5066251;28;20048;-63
2021/04/22 07:29:14;;;;;;;19.52;14.48;;;12.00;63.40;;;;;;5065404;28;20037;-63
2021/04/22 07:31:44;;;;;;;21.55;14.48;;;12.00;63.30;;;;;;5065975;28;20028;-62
2021/04/22 07:34:12;;;;;;;19.88;14.88;;;12.10;63.40;;;;;;5067214;28;20512;-63
2021/04/22 07:36:40;;;;;;;19.35;14.63;;;12.10;62.90;;;;;;5065852;28;20028;-63
2021/04/22 07:39:10;;;;;;;16.80;13.80;;;12.20;62.80;;;;;;5063420;28;20041;-63
2021/04/22 07:41:38;;;;;;;21.13;15.48;;;12.20;62.80;;;;;;5066914;28;20032;-63
2021/04/22 07:44:06;;;;;;;20.70;14.75;;;12.30;62.90;;;;;;5058915;28;20040;-62
2021/04/22 07:46:34;;;;;;;21.80;15.50;;;12.30;62.90;;;;;;5064542;28;20028;-63
2021/04/22 07:49:05;;;;;;;19.67;14.65;;;12.40;62.80;;;;;;5063097;28;20041;-63
2021/04/22 07:51:33;;;;;;;20.77;14.57;;;12.50;62.60;;;;;;5066265;28;20032;-63
2021/04/22 07:54:01;;;;;;;20.80;14.55;;;12.60;62.50;;;;;;5065137;28;20079;-63
2021/04/22 07:56:29;;;;;;;19.05;14.80;;;12.60;62.40;;;;;;5065559;28;20079;-63
2021/04/22 07:58:57;;;;;;;22.10;14.85;;;12.70;62.40;;;;;;5065033;28;20054;-62
2021/04/22 08:01:24;;;;;;;18.83;14.48;;;12.80;62.30;;;;;;5066834;28;20060;-65
2021/04/22 08:03:52;;;;;;;15.73;13.48;;;12.90;62.30;;;;;;5065459;28;20056;-65
2021/04/22 08:06:18;;;;;;;19.73;15.27;;;13.00;62.50;;;;;;5065554;28;20136;-65
2021/04/22 08:08:44;;;;;;;18.55;14.40;;;13.10;62.00;;;;;;5065007;28;20032;-65
2021/04/22 08:11:11;;;;;;;19.92;14.93;;;13.20;61.70;;;;;;5059250;28;20421;-63
2021/04/22 08:13:38;;;;;;;19.58;14.15;;;13.30;61.30;;;;;;5062747;28;20036;-63
2021/04/22 08:16:07;;;;;;;16.55;13.80;;;13.40;61.20;;;;;;5066238;28;20120;-63
2021/04/22 08:18:37;;;;;;;18.90;14.77;;;13.40;61.20;;;;;;5065326;28;20505;-63
2021/04/22 08:21:05;;;;;;;20.98;14.88;;;13.50;60.80;;;;;;5066271;28;20041;-63
2021/04/22 08:23:34;;;;;;;17.27;13.73;;;13.50;60.70;;;;;;5066546;28;20040;-63
2021/04/22 08:26:07;;;;;;;19.48;14.80;;;13.60;60.80;;;;;;5064554;28;20193;-63
2021/04/22 08:28:38;;;;;;;18.88;13.82;;;13.60;60.60;;;;;;5063649;28;20040;-63
2021/04/22 08:31:12;;;;;;;18.75;13.98;;;13.60;60.30;;;;;;5065334;28;20036;-62
2021/04/22 08:33:39;;;;;;;18.27;13.73;;;13.60;60.40;;;;;;5063458;28;20044;-63
2021/04/22 08:36:10;;;;;;;17.95;14.35;;;13.60;60.50;;;;;;5064143;28;20041;-63
2021/04/22 08:38:36;;;;;;;18.25;14.15;;;13.70;60.30;;;;;;5065249;28;20526;-62
2021/04/22 08:41:06;;;;;;;17.52;13.40;;;13.70;60.10;;;;;;5064778;28;20085;-63
2021/04/22 08:43:32;;;;;;;18.98;14.50;;;13.80;60.10;;;;;;5061592;28;20041;-63
2021/04/22 08:46:00;;;;;;;19.67;14.90;;;13.80;60.10;;;;;;5064533;28;20538;-66
2021/04/22 08:48:31;;;;;;;19.73;14.18;;;13.80;60.60;;;;;;5061473;28;20463;-63
2021/04/22 08:51:01;;;;;;;21.05;14.00;;;13.80;60.50;;;;;;5061563;28;20033;-63
2021/04/22 08:53:32;;;;;;;19.98;14.60;;;13.80;60.30;;;;;;5063680;28;20394;-63
2021/04/22 08:55:59;;;;;;;19.92;14.27;;;13.80;60.10;;;;;;5065258;28;20104;-63
2021/04/22 08:58:30;;;;;;;19.40;14.48;;;13.80;60.10;;;;;;5063381;28;20029;-62
2021/04/22 09:00:58;;;;;;;21.88;14.52;;;13.80;60.10;;;;;;5081574;28;20052;-63
2021/04/22 09:03:25;;;;;;;23.05;15.15;;;13.80;60.10;;;;;;5064622;28;20058;-63
2021/04/22 09:05:53;;;;;;;20.42;16.50;;;13.80;59.90;;;;;;5065759;28;20024;-63
2021/04/22 09:08:30;;;;;;;20.88;15.50;;;13.80;59.30;;;;;;5064359;28;20045;-63
2021/04/22 09:11:01;;;;;;;18.30;14.52;;;13.80;59.20;;;;;;5061798;28;20035;-62
2021/04/22 09:13:31;;;;;;;19.52;15.73;;;13.70;59.30;;;;;;5056975;28;20056;-63
2021/04/22 09:16:14;;;;;;;21.17;15.20;;;13.70;59.50;;;;;;5069546;28;20178;-63
2021/04/22 09:18:46;;;;;;;18.63;14.68;;;13.70;59.60;;;;;;5067931;28;20029;-63
2021/04/22 09:21:32;;;;;;;20.80;15.18;;;13.70;60.00;;;;;;5069083;28;20397;-63
2021/04/22 09:24:10;;;;;;;19.98;15.63;;;13.70;60.20;;;;;;5065085;28;20028;-65
2021/04/22 09:27:02;;;;;;;18.10;14.48;;;13.70;60.10;;;;;;5068739;28;20033;-65
2021/04/22 09:29:41;;;;;;;19.60;15.88;;;13.80;60.00;;;;;;5068579;28;20036;-65
2021/04/22 09:32:16;;;;;;;18.63;15.77;;;13.90;59.60;;;;;;5067284;28;20036;-65
2021/04/22 09:34:50;;;;;;;18.52;15.27;;;13.90;59.50;;;;;;5068728;28;20119;-65
2021/04/22 09:37:23;;;;;;;21.55;15.18;;;13.90;59.30;;;;;;5069308;28;20053;-65
2021/04/22 09:39:51;;;;;;;20.92;15.38;;;14.00;59.60;;;;;;5068642;28;20445;-65
2021/04/22 09:42:21;;;;;;;22.73;15.65;;;14.10;59.70;;;;;;5067104;28;20059;-65
2021/04/22 09:44:49;;;;;;;19.70;15.88;;;14.20;59.70;;;;;;5066348;28;20032;-66
2021/04/22 09:47:20;;;;;;;21.13;16.25;;;14.30;59.40;;;;;;5069690;28;20044;-65
2021/04/22 09:50:00;;;;;;;23.20;17.95;;;14.30;59.00;;;;;;5068639;28;20379;-66
2021/04/22 09:52:35;;;;;;;23.30;17.63;;;14.40;58.60;;;;;;5062634;28;20043;-63
2021/04/22 09:55:07;;;;;;;21.80;16.70;;;14.40;58.30;;;;;;5067433;28;20071;-63
2021/04/22 09:57:36;;;;;;;26.50;17.15;;;14.40;58.70;;;;;;5083937;28;20036;-63
2021/04/22 10:00:14;;;;;;;18.90;16.15;;;14.50;59.00;;;;;;5066192;28;20052;-63
2021/04/22 10:02:52;;;;;;;20.55;15.98;;;14.50;59.00;;;;;;5067423;28;20043;-63
2021/04/22 10:05:34;;;;;;;19.42;15.77;;;14.60;58.80;;;;;;5069347;28;20409;-63
2021/04/22 10:08:18;;;;;;;19.23;15.38;;;14.70;58.80;;;;;;5068527;28;20037;-63
2021/04/22 10:11:04;;;;;;;23.35;16.85;;;14.80;58.40;;;;;;5062847;28;20036;-66
2021/04/22 10:13:41;;;;;;;22.05;16.45;;;15.00;58.30;;;;;;5069439;28;20041;-65
2021/04/22 10:16:07;;;;;;;21.42;16.40;;;15.00;58.40;;;;;;5069310;28;20494;-66
2021/04/22 10:18:43;;;;;;;19.50;16.02;;;15.10;58.20;;;;;;5068495;28;20031;-66
2021/04/22 10:21:11;;;;;;;21.38;17.00;;;15.20;58.10;;;;;;5067451;28;20037;-65
2021/04/22 10:23:37;;;;;;;23.20;17.15;;;15.40;58.00;;;;;;5067647;28;20033;-65
2021/04/22 10:26:18;;;;;;;20.40;16.30;;;15.40;57.50;;;;;;5062831;28;20032;-64
2021/04/22 10:28:48;;;;;;;22.05;16.67;;;15.50;57.10;;;;;;5063349;28;20037;-63
2021/04/22 10:31:18;;;;;;;19.98;16.30;;;15.60;57.00;;;;;;5067386;28;20029;-63
2021/04/22 10:33:49;;;;;;;22.83;16.92;;;15.70;56.70;;;;;;5067332;28;20032;-63
2021/04/22 10:36:21;;;;;;;21.55;17.20;;;15.80;56.60;;;;;;5065915;28;20036;-63
2021/04/22 10:38:55;;;;;;;20.88;17.63;;;15.90;56.20;;;;;;5068097;28;20409;-63
2021/04/22 10:41:30;;;;;;;22.70;16.98;;;15.90;55.80;;;;;;5066476;28;20032;-63
2021/04/22 10:44:01;;;;;;;24.35;18.38;;;16.00;55.90;;;;;;5067314;28;20037;-63
2021/04/22 10:46:31;;;;;;;24.00;19.52;;;16.10;55.60;;;;;;5066875;28;20028;-63
2021/04/22 10:49:04;;;;;;;27.08;20.10;;;16.10;54.70;;;;;;5067895;28;20028;-63
2021/04/22 10:51:32;;;;;;;24.48;17.65;;;16.10;54.00;;;;;;5067263;28;20028;-63
2021/04/22 10:54:05;;;;;;;26.23;19.55;;;16.10;54.80;;;;;;5068158;28;20127;-63
2021/04/22 10:56:35;;;;;;;26.83;18.65;;;16.00;54.10;;;;;;5067224;28;20056;-63
2021/04/22 10:59:03;;;;;;;24.15;19.08;;;16.00;54.90;;;;;;5066969;28;20502;-63
2021/04/22 11:01:37;;;;;;;23.63;19.45;;;16.00;54.40;;;;;;5068206;28;20043;-63
2021/04/22 11:04:08;;;;;;;21.60;17.33;;;16.00;54.40;;;;;;5066631;28;20085;-63
2021/04/22 11:06:38;;;;;;;24.13;18.80;;;16.00;54.70;;;;;;5066691;28;20056;-63
2021/04/22 11:09:23;;;;;;;24.75;18.48;;;16.00;54.80;;;;;;5067234;28;20568;-63
2021/04/22 11:12:03;;;;;;;28.75;20.00;;;16.00;54.70;;;;;;5062991;28;20040;-66
2021/04/22 11:14:46;;;;;;;26.20;20.40;;;16.10;54.50;;;;;;5065252;28;20052;-66
2021/04/22 11:17:14;;;;;;;28.05;20.48;;;16.10;53.80;;;;;;5063487;28;20032;-66
2021/04/22 11:19:43;;;;;;;25.08;20.15;;;16.20;54.10;;;;;;5066966;28;20060;-66
2021/04/22 11:22:25;;;;;;;24.83;19.35;;;16.20;53.70;;;;;;5058032;28;20447;-66
2021/04/22 11:24:56;;;;;;;24.23;19.23;;;16.10;53.50;;;;;;5066026;28;20196;-63
2021/04/22 11:27:26;;;;;;;26.17;20.13;;;16.10;53.70;;;;;;5066326;28;20032;-63
2021/04/22 11:29:59;;;;;;;28.30;21.60;;;16.10;54.00;;;;;;5066072;28;20556;-63
2021/04/22 11:32:32;;;;;;;25.02;20.27;;;16.00;54.00;;;;;;5065915;28;20086;-64
2021/04/22 11:35:13;;;;;;;24.83;20.25;;;16.00;53.90;;;;;;5066955;28;20029;-63
2021/04/22 11:37:46;;;;;;;26.17;19.80;;;16.00;54.20;;;;;;5065786;28;20025;-66
2021/04/22 11:40:23;;;;;;;26.83;20.85;;;16.00;54.00;;;;;;5065045;28;20568;-63
2021/04/22 11:42:51;;;;;;;24.80;19.95;;;16.10;54.00;;;;;;5065998;28;20029;-66
2021/04/22 11:45:47;;;;;;;24.17;19.88;;;16.10;54.20;;;;;;5066614;28;20582;-63
2021/04/22 11:48:15;;;;;;;25.75;18.85;;;16.20;53.60;;;;;;5067127;28;20120;-63
2021/04/22 11:50:48;;;;;;;24.30;19.17;;;16.20;53.90;;;;;;5066990;28;20065;-63
2021/04/22 11:53:16;;;;;;;28.92;21.65;;;16.20;54.70;;;;;;5066173;28;20036;-63
2021/04/22 11:55:52;;;;;;;27.50;20.90;;;16.30;53.80;;;;;;5066033;28;20033;-64
2021/04/22 11:58:24;;;;;;;26.25;19.33;;;16.30;53.50;;;;;;5067506;28;20036;-63
2021/04/22 12:00:59;;;;;;;25.33;19.45;;;16.20;53.90;;;;;;5064913;28;20028;-63
2021/04/22 12:03:41;;;;;;;24.33;19.40;;;16.30;54.00;;;;;;5065619;28;20025;-63
2021/04/22 12:06:13;;;;;;;27.45;20.08;;;16.20;53.80;;;;;;5067386;28;20028;-63
2021/04/22 12:08:45;;;;;;;29.05;21.05;;;16.30;54.00;;;;;;5064989;28;20520;-63
2021/04/22 12:11:18;;;;;;;28.05;21.45;;;16.30;53.90;;;;;;5060086;28;20048;-62
2021/04/22 12:13:49;;;;;;;30.83;22.13;;;16.40;53.70;;;;;;5066953;28;20082;-63
2021/04/22 12:16:18;;;;;;;30.08;22.90;;;16.40;53.70;;;;;;5063876;28;20417;-63
2021/04/22 12:18:50;;;;;;;29.63;21.05;;;16.40;53.00;;;;;;5065198;28;20041;-63
2021/04/22 12:21:20;;;;;;;31.33;21.92;;;16.30;53.00;;;;;;5066740;28;20112;-63
2021/04/22 12:23:51;;;;;;;26.55;21.55;;;16.30;53.10;;;;;;5066214;28;20029;-63
2021/04/22 12:26:27;;;;;;;24.52;20.92;;;16.30;53.10;;;;;;5066007;28;20032;-63
2021/04/22 12:29:04;;;;;;;26.20;21.60;;;16.30;53.20;;;;;;5062953;28;20580;-63
2021/04/22 12:31:38;;;;;;;30.48;22.83;;;16.30;53.40;;;;;;5064670;28;20044;-61
2021/04/22 12:34:22;;;;;;;30.00;22.48;;;16.40;52.90;;;;;;5062996;28;20040;-63
2021/04/22 12:36:57;;;;;;;29.10;24.58;;;16.50;52.60;;;;;;5063813;28;20033;-63
2021/04/22 12:39:31;;;;;;;32.35;24.25;;;16.50;51.30;;;;;;5058482;28;20036;-66
2021/04/22 12:42:06;;;;;;;28.70;22.70;;;16.50;52.00;;;;;;5064455;28;20063;-65
2021/04/22 12:44:39;;;;;;;30.48;24.35;;;16.50;51.20;;;;;;5079978;28;20439;-66
2021/04/22 12:47:09;;;;;;;27.13;22.60;;;16.50;51.10;;;;;;5061773;28;20028;-64